createdAt,value
2019-05-25T00:01:59.640Z,14.03
2019-05-25T00:04:29.648Z,18.80
2019-05-25T00:06:59.469Z,16.07
2019-05-25T00:09:30.384Z,14.93
2019-05-25T00:12:00.350Z,17.90
2019-05-25T00:14:30.518Z,21.60
2019-05-25T00:17:00.355Z,16.30
2019-05-25T00:19:30.270Z,15.55
2019-05-25T00:22:01.403Z,21.48
2019-05-25T00:24:31.239Z,18.27
2019-05-25T00:27:01.130Z,19.27
2019-05-25T00:29:32.553Z,19.82
2019-05-25T00:32:02.440Z,16.45
2019-05-25T00:34:32.264Z,19.90
2019-05-25T00:37:02.316Z,20.35
2019-05-25T00:39:33.745Z,17.02
2019-05-25T00:42:03.630Z,19.92
2019-05-25T00:44:35.202Z,18.52
2019-05-25T00:47:05.862Z,19.20
2019-05-25T00:49:35.723Z,23.47
2019-05-25T00:52:05.582Z,19.95
2019-05-25T00:54:35.566Z,23.50
2019-05-25T00:57:05.333Z,19.60
2019-05-25T00:59:35.899Z,19.00
2019-05-25T01:02:05.829Z,24.60
2019-05-25T01:04:35.664Z,20.90
2019-05-25T01:07:05.551Z,24.23
2019-05-25T01:09:35.323Z,23.07
2019-05-25T01:12:05.488Z,22.22
2019-05-25T01:14:35.458Z,20.90
2019-05-25T01:17:05.329Z,28.15
2019-05-25T01:19:35.294Z,23.10
2019-05-25T01:22:05.202Z,23.87
2019-05-25T01:24:43.957Z,23.25
2019-05-25T01:27:06.904Z,18.85
2019-05-25T01:29:36.696Z,22.90
2019-05-25T01:32:06.524Z,20.37
2019-05-25T01:34:36.373Z,23.55
2019-05-25T01:37:06.440Z,28.57
2019-05-25T01:39:36.339Z,29.37
2019-05-25T01:42:06.179Z,24.18
2019-05-25T01:44:36.225Z,26.65
2019-05-25T01:47:06.211Z,28.55
2019-05-25T01:49:36.166Z,28.20
2019-05-25T01:52:06.317Z,25.75
2019-05-25T01:54:39.263Z,25.97
2019-05-25T01:57:09.284Z,27.73
2019-05-25T01:59:40.740Z,23.90
2019-05-25T02:02:10.774Z,29.63
2019-05-25T02:04:43.338Z,31.23
2019-05-25T02:07:13.987Z,30.60
2019-05-25T02:09:44.496Z,24.02
2019-05-25T02:12:14.408Z,31.65
2019-05-25T02:14:45.961Z,32.40
2019-05-25T02:17:16.630Z,24.80
2019-05-25T02:19:48.972Z,26.17
2019-05-25T02:22:19.081Z,24.80
2019-05-25T02:24:51.633Z,26.82
2019-05-25T02:27:21.476Z,25.57
2019-05-25T02:29:52.820Z,26.07
2019-05-25T02:32:22.767Z,28.95
2019-05-25T02:34:52.608Z,31.85
2019-05-25T02:37:22.645Z,27.90
2019-05-25T02:39:53.325Z,26.25
2019-05-25T02:42:23.262Z,22.20
2019-05-25T02:44:59.939Z,24.07
2019-05-25T02:47:29.835Z,26.30
2019-05-25T02:50:01.162Z,23.10
2019-05-25T02:52:32.704Z,30.10
2019-05-25T02:55:02.674Z,27.17
2019-05-25T02:57:32.555Z,29.18
2019-05-25T03:00:02.468Z,30.20
2019-05-25T03:02:33.924Z,27.37
2019-05-25T03:05:07.405Z,28.75
2019-05-25T03:07:40.357Z,31.27
2019-05-25T03:10:10.596Z,34.43
2019-05-25T03:12:41.731Z,27.62
2019-05-25T03:15:11.906Z,27.58
2019-05-25T03:17:41.842Z,30.90
2019-05-25T03:20:12.076Z,27.05
2019-05-25T03:22:48.292Z,28.38
2019-05-25T03:25:18.561Z,25.80
2019-05-25T03:27:49.319Z,27.22
2019-05-25T03:30:32.611Z,23.62
2019-05-25T03:33:02.672Z,29.27
2019-05-25T03:35:33.795Z,30.85
2019-05-25T03:38:05.310Z,25.40
2019-05-25T03:40:38.689Z,29.92
2019-05-25T03:43:09.205Z,30.82
2019-05-25T03:45:42.516Z,26.62
2019-05-25T03:48:17.813Z,30.30
2019-05-25T03:50:48.351Z,29.45
2019-05-25T03:53:21.226Z,27.20
2019-05-25T03:56:04.813Z,30.95
2019-05-25T03:58:24.838Z,34.13
2019-05-25T04:00:56.903Z,25.40
2019-05-25T04:03:28.787Z,32.00
2019-05-25T04:06:00.266Z,31.07
2019-05-25T04:08:31.063Z,30.68
2019-05-25T04:11:00.993Z,30.08
2019-05-25T04:13:40.285Z,31.62
2019-05-25T04:16:10.297Z,30.77
2019-05-25T04:18:42.726Z,32.00
2019-05-25T04:21:13.924Z,30.45
2019-05-25T04:23:44.865Z,31.77
2019-05-25T04:26:22.656Z,34.13
2019-05-25T04:28:51.087Z,29.63
2019-05-25T04:31:22.959Z,26.87
2019-05-25T04:33:57.447Z,29.05
2019-05-25T04:36:28.735Z,29.92
2019-05-25T04:39:00.518Z,32.83
2019-05-25T04:41:31.352Z,38.40
2019-05-25T04:44:01.292Z,36.15
2019-05-25T04:46:31.219Z,36.13
2019-05-25T04:49:02.648Z,31.33
2019-05-25T04:51:35.754Z,35.30
2019-05-25T04:54:05.781Z,30.02
2019-05-25T04:56:39.908Z,34.95
2019-05-25T04:59:10.032Z,30.20
2019-05-25T05:01:41.281Z,35.13
2019-05-25T05:04:15.203Z,35.03
2019-05-25T05:06:49.832Z,34.10
2019-05-25T05:09:20.325Z,36.53
2019-05-25T05:12:05.886Z,35.38
2019-05-25T05:14:43.241Z,35.60
2019-05-25T05:17:33.913Z,40.75
2019-05-25T05:20:09.016Z,35.70
2019-05-25T05:25:46.554Z,30.97
2019-05-25T05:28:21.450Z,31.02
2019-05-25T05:33:49.905Z,31.93
2019-05-25T05:36:24.157Z,32.58
2019-05-25T05:39:03.470Z,29.35
2019-05-25T05:41:52.351Z,27.07
2019-05-25T05:44:45.129Z,29.92
2019-05-25T05:47:31.518Z,25.75
2019-05-25T05:50:26.957Z,21.80
2019-05-25T05:53:12.850Z,24.07
2019-05-25T06:29:31.926Z,23.57
2019-05-25T06:54:06.639Z,24.40
2019-05-25T07:32:58.661Z,16.17
2019-05-25T07:35:52.802Z,22.77
2019-05-25T07:38:30.956Z,21.30
2019-05-25T07:41:13.247Z,16.90
2019-05-25T07:43:48.840Z,20.15
2019-05-25T07:46:33.477Z,22.05
2019-05-25T07:52:07.553Z,23.32
2019-05-25T07:55:09.305Z,21.87
2019-05-25T08:01:09.062Z,21.77
2019-05-25T08:03:39.646Z,18.52
2019-05-25T08:06:12.298Z,21.90
2019-05-25T08:17:48.450Z,19.15
2019-05-25T08:20:25.141Z,17.57
2019-05-25T08:38:10.844Z,18.92
2019-05-25T08:40:52.667Z,20.23
2019-05-25T08:49:34.679Z,15.88
2019-05-25T08:55:10.801Z,12.90
2019-05-25T09:23:54.145Z,16.65
2019-05-25T09:30:01.151Z,14.60
2019-05-25T09:35:48.225Z,12.78
2019-05-25T09:38:23.581Z,14.47
2019-05-25T09:41:00.836Z,13.75
2019-05-25T09:46:37.105Z,16.20
2019-05-25T09:49:09.447Z,17.95
2019-05-25T09:51:44.045Z,15.15
2019-05-25T09:54:31.703Z,14.40
2019-05-25T10:13:45.689Z,14.40
2019-05-25T10:16:54.011Z,12.90
2019-05-25T10:22:25.971Z,9.13
2019-05-25T10:31:13.438Z,9.65
2019-05-25T10:33:51.052Z,14.23
2019-05-25T10:36:42.846Z,9.73
2019-05-25T10:39:25.515Z,9.70
2019-05-25T10:42:43.388Z,13.22
2019-05-25T10:45:17.463Z,8.75
2019-05-25T10:47:51.227Z,9.88
2019-05-25T10:57:19.974Z,9.68
2019-05-25T10:59:58.931Z,9.73
2019-05-25T11:02:36.662Z,9.60
2019-05-25T11:05:12.072Z,9.68
2019-05-25T11:07:48.699Z,11.10
2019-05-25T11:10:24.056Z,8.95
2019-05-25T11:13:01.736Z,9.58
2019-05-25T11:15:35.326Z,9.98
2019-05-25T11:18:05.172Z,7.40
2019-05-25T11:23:42.997Z,10.58
2019-05-25T11:26:14.141Z,9.28
2019-05-25T11:28:44.059Z,8.73
2019-05-25T11:31:20.903Z,10.80
2019-05-25T11:34:05.335Z,9.88
2019-05-25T11:36:38.660Z,7.90
2019-05-25T11:39:10.203Z,12.18
2019-05-25T11:41:40.219Z,7.50
2019-05-25T11:44:22.546Z,10.43
2019-05-25T11:46:54.386Z,8.63
2019-05-25T11:49:26.440Z,8.90
2019-05-25T11:52:00.045Z,11.95
2019-05-25T11:54:37.457Z,11.45
2019-05-25T11:57:17.315Z,10.43
2019-05-25T11:59:49.325Z,10.15
2019-05-25T12:02:25.113Z,8.05
2019-05-25T12:04:57.546Z,8.95
2019-05-25T12:07:35.402Z,8.68
2019-05-25T12:10:10.125Z,10.88
2019-05-25T12:15:40.193Z,9.00
2019-05-25T12:18:17.368Z,8.10
2019-05-25T12:20:50.985Z,8.77
2019-05-25T12:23:23.899Z,7.03
2019-05-25T12:25:58.520Z,10.28
2019-05-25T12:28:53.756Z,9.75
2019-05-25T12:31:27.036Z,9.65
2019-05-25T12:33:57.125Z,10.03
2019-05-25T12:36:50.769Z,10.10
2019-05-25T12:39:26.437Z,8.63
2019-05-25T12:41:58.097Z,10.40
2019-05-25T12:44:29.002Z,9.18
2019-05-25T12:47:01.653Z,10.35
2019-05-25T12:49:48.495Z,11.10
2019-05-25T12:52:03.054Z,9.80
2019-05-25T12:54:34.393Z,11.55
2019-05-25T12:57:05.839Z,9.40
2019-05-25T12:59:38.441Z,10.30
2019-05-25T13:02:11.252Z,11.40
2019-05-25T13:04:50.087Z,9.28
2019-05-25T13:07:21.806Z,10.98
2019-05-25T13:10:20.785Z,9.98
2019-05-25T13:13:02.381Z,9.28
2019-05-25T13:15:39.813Z,9.28
2019-05-25T13:18:23.216Z,9.85
2019-05-25T13:23:59.296Z,11.12
2019-05-25T13:26:32.986Z,10.80
2019-05-25T13:29:08.754Z,8.13
2019-05-25T13:31:36.120Z,10.45
2019-05-25T13:34:08.667Z,10.85
2019-05-25T13:36:39.220Z,9.38
2019-05-25T13:39:11.576Z,9.00
2019-05-25T13:41:42.629Z,11.55
2019-05-25T13:44:13.406Z,10.48
2019-05-25T13:46:43.358Z,12.15
2019-05-25T13:49:13.778Z,9.40
2019-05-25T13:51:43.678Z,13.55
2019-05-25T13:54:16.130Z,12.05
2019-05-25T13:56:46.136Z,12.23
2019-05-25T13:59:17.914Z,13.50
2019-05-25T14:01:47.753Z,12.13
2019-05-25T14:04:18.298Z,12.05
2019-05-25T14:06:51.467Z,12.28
2019-05-25T14:09:22.516Z,13.45
2019-05-25T14:11:52.409Z,14.18
2019-05-25T14:14:24.376Z,11.22
2019-05-25T14:16:54.056Z,11.88
2019-05-25T14:19:24.120Z,14.78
2019-05-25T14:22:18.531Z,12.65
2019-05-25T14:24:49.107Z,12.85
2019-05-25T14:27:20.317Z,12.63
2019-05-25T14:29:54.282Z,13.53
2019-05-25T14:32:25.113Z,11.57
2019-05-25T14:34:55.904Z,15.18
2019-05-25T14:37:26.192Z,11.05
2019-05-25T14:39:59.365Z,10.00
2019-05-25T14:42:29.288Z,9.80
2019-05-25T14:45:03.822Z,9.58
2019-05-25T14:47:37.637Z,9.88
2019-05-25T14:50:10.013Z,14.35
2019-05-25T14:52:43.204Z,9.80
2019-05-25T14:55:14.110Z,9.28
2019-05-25T14:57:46.991Z,11.55
2019-05-25T15:00:18.320Z,12.03
2019-05-25T15:02:49.228Z,9.83
2019-05-25T15:05:24.155Z,10.78
2019-05-25T15:17:09.685Z,12.35
2019-05-25T15:19:41.873Z,7.15
2019-05-25T15:25:20.518Z,6.90
2019-05-25T15:31:01.137Z,5.97
2019-05-25T15:33:54.378Z,5.40
2019-05-25T15:52:10.720Z,6.75
2019-05-25T16:10:32.233Z,6.17
2019-05-25T16:34:57.048Z,6.60
2019-05-25T16:37:30.149Z,5.75
2019-05-25T16:40:01.557Z,5.80
2019-05-25T16:42:44.437Z,6.55
2019-05-25T16:45:17.866Z,7.65
2019-05-25T16:47:57.045Z,6.03
2019-05-25T17:14:44.165Z,10.48
2019-05-25T17:26:55.223Z,8.85
2019-05-25T17:35:40.329Z,14.25
2019-05-25T17:44:28.121Z,11.00
2019-05-25T17:55:15.460Z,9.13
2019-05-25T18:01:02.427Z,11.93
2019-05-25T18:04:06.679Z,16.17
2019-05-25T18:06:41.227Z,14.25
2019-05-25T18:12:27.542Z,13.40
2019-05-25T18:26:49.222Z,18.77
2019-05-25T18:29:23.636Z,19.70
2019-05-25T18:31:59.629Z,18.00
2019-05-25T18:34:45.462Z,17.65
2019-05-25T18:37:22.426Z,19.00
2019-05-25T18:39:57.677Z,17.10
2019-05-25T18:42:30.853Z,18.27
2019-05-25T18:45:09.369Z,16.67
2019-05-25T18:47:39.917Z,20.40
2019-05-25T18:50:16.120Z,19.10
2019-05-25T18:52:48.056Z,17.17
2019-05-25T18:55:22.989Z,17.92
2019-05-25T18:57:56.104Z,17.80
2019-05-25T19:00:27.991Z,18.35
2019-05-25T19:03:00.386Z,17.92
2019-05-25T19:05:32.769Z,23.95
2019-05-25T19:08:03.415Z,20.27
2019-05-25T19:10:33.432Z,18.82
2019-05-25T19:13:04.395Z,21.20
2019-05-25T19:15:34.830Z,22.07
2019-05-25T19:18:04.864Z,18.77
2019-05-25T19:20:36.826Z,24.87
2019-05-25T19:23:11.486Z,22.25
2019-05-25T19:25:41.977Z,19.92
2019-05-25T19:28:13.069Z,24.63
2019-05-25T19:30:42.987Z,25.43
2019-05-25T19:33:16.891Z,21.17
2019-05-25T19:35:48.409Z,21.42
2019-05-25T19:38:18.347Z,23.07
2019-05-25T19:40:51.468Z,24.25
2019-05-25T19:43:23.948Z,20.80
2019-05-25T19:45:56.089Z,26.73
2019-05-25T19:48:27.506Z,26.35
2019-05-25T19:50:57.457Z,24.52
2019-05-25T19:53:28.972Z,22.17
2019-05-25T19:56:01.103Z,24.43
2019-05-25T19:58:33.725Z,25.30
2019-05-25T20:01:06.509Z,24.60
2019-05-25T20:03:38.462Z,22.85
2019-05-25T20:06:09.921Z,25.35
2019-05-25T20:08:42.669Z,21.77
2019-05-25T20:11:13.465Z,22.30
2019-05-25T20:13:46.868Z,23.55
2019-05-25T20:16:17.769Z,23.62
2019-05-25T20:18:48.856Z,23.67
2019-05-25T20:21:21.058Z,24.85
2019-05-25T20:23:52.738Z,24.75
2019-05-25T20:26:23.291Z,25.52
2019-05-25T20:28:53.605Z,24.37
2019-05-25T20:31:24.204Z,23.45
2019-05-25T20:33:55.171Z,25.80
2019-05-25T20:36:25.111Z,24.32
2019-05-25T20:38:55.076Z,26.95
2019-05-25T20:41:25.095Z,23.42
2019-05-25T20:43:56.243Z,28.25
2019-05-25T20:46:28.096Z,27.48
2019-05-25T20:48:58.117Z,28.15
2019-05-25T20:51:28.756Z,26.50
2019-05-25T20:54:01.375Z,32.83
2019-05-25T20:56:31.683Z,30.62
2019-05-25T20:59:01.575Z,32.50
2019-05-25T21:01:32.589Z,31.42
2019-05-25T21:04:05.767Z,29.27
2019-05-25T21:06:36.314Z,32.70
2019-05-25T21:09:09.236Z,31.93
2019-05-25T21:11:39.047Z,38.13
2019-05-25T21:14:09.858Z,31.35
2019-05-25T21:16:41.727Z,33.20
2019-05-25T21:19:11.711Z,34.18
2019-05-25T21:21:41.639Z,32.85
2019-05-25T21:24:11.632Z,33.83
2019-05-25T21:26:44.694Z,33.35
2019-05-25T21:29:15.380Z,32.45
2019-05-25T21:31:45.293Z,34.18
2019-05-25T21:34:15.297Z,37.55
2019-05-25T21:36:45.758Z,31.33
2019-05-25T21:39:16.122Z,33.55
2019-05-25T21:41:46.123Z,32.13
2019-05-25T21:44:18.668Z,34.45
2019-05-25T21:46:49.276Z,34.05
2019-05-25T21:49:19.651Z,34.48
2019-05-25T21:51:50.398Z,33.25
2019-05-25T21:54:21.207Z,35.78
2019-05-25T21:56:51.809Z,35.55
2019-05-25T21:59:22.355Z,35.50
2019-05-25T22:01:52.368Z,38.33
2019-05-25T22:04:25.113Z,37.75
2019-05-25T22:06:57.330Z,35.10
2019-05-25T22:09:27.226Z,35.05
2019-05-25T22:12:00.009Z,38.15
2019-05-25T22:14:30.870Z,39.05
2019-05-25T22:17:01.352Z,39.40
2019-05-25T22:19:32.473Z,38.38
2019-05-25T22:22:03.370Z,37.05
2019-05-25T22:24:33.323Z,36.90
2019-05-25T22:27:07.028Z,37.78
2019-05-25T22:29:38.078Z,38.83
2019-05-25T22:32:08.601Z,37.83
2019-05-25T22:34:39.610Z,37.58
2019-05-25T22:37:10.429Z,37.83
2019-05-25T22:39:41.414Z,35.13
2019-05-25T22:42:11.451Z,36.55
2019-05-25T22:44:42.198Z,34.50
2019-05-25T22:47:12.967Z,40.45
2019-05-25T22:49:46.085Z,39.23
2019-05-25T22:52:16.549Z,37.55
2019-05-25T22:54:54.122Z,40.05
2019-05-25T22:57:27.217Z,47.75
2019-05-25T22:59:57.168Z,41.80
2019-05-25T23:02:28.527Z,41.60
2019-05-25T23:05:06.842Z,43.95
2019-05-25T23:07:35.877Z,42.93
2019-05-25T23:10:08.819Z,42.83
2019-05-25T23:12:39.371Z,44.88
2019-05-25T23:15:09.928Z,45.52
2019-05-25T23:17:40.238Z,43.42
2019-05-25T23:20:11.219Z,40.85
2019-05-25T23:22:44.645Z,43.87
2019-05-25T23:25:19.361Z,46.70
2019-05-25T23:27:49.303Z,44.27
2019-05-25T23:30:22.152Z,45.35
2019-05-25T23:32:52.958Z,43.80
2019-05-25T23:35:24.408Z,46.70
2019-05-25T23:37:55.832Z,52.15
2019-05-25T23:40:38.873Z,47.05
2019-05-25T23:43:11.242Z,47.95
2019-05-25T23:45:44.578Z,51.45
2019-05-25T23:48:14.993Z,48.65
2019-05-25T23:50:46.389Z,47.27
2019-05-25T23:53:19.990Z,48.52
2019-05-25T23:55:51.678Z,47.50
2019-05-25T23:58:22.568Z,52.95
